Time;durP1;ratioP1;P1;durP2;ratioP2;P2;SDS_P1;SDS_P2;PMS_P1;PMS_P2;Temp;Humidity;BMP_temperature;BMP_pressure;BME280_temperature;BME280_humidity;BME280_pressure;Samples;Min_cycle;Max_cycle;Signal;HPM_P1;HPM_P2
2023/06/08 00:01:25;;;;;;;;;;;17.00;99.90;;;;;;4917046;29;19911;-74
2023/06/08 00:03:55;;;;;;;;;;;16.90;99.90;;;;;;4925743;29;19934;-74
2023/06/08 00:06:26;;;;;;;;;;;16.90;99.90;;;;;;4904523;29;19915;-74
2023/06/08 00:08:51;;;;;;;;;;;17.00;99.90;;;;;;4923735;29;20740;-73
2023/06/08 00:11:19;;;;;;;;;;;17.00;99.90;;;;;;4920092;29;19919;-74
2023/06/08 00:13:45;;;;;;;;;;;16.90;99.90;;;;;;4923832;29;20508;-74
2023/06/08 00:16:13;;;;;;;;;;;16.90;99.90;;;;;;4923461;29;19911;-73
2023/06/08 00:18:41;;;;;;;;;;;16.90;99.90;;;;;;4928124;29;19910;-74
2023/06/08 00:21:06;;;;;;;;;;;16.80;99.90;;;;;;4925307;29;19918;-74
2023/06/08 00:23:32;;;;;;;;;;;16.80;99.90;;;;;;4924173;29;19919;-75
2023/06/08 00:25:58;;;;;;;;;;;16.80;99.90;;;;;;4930047;29;19917;-77
2023/06/08 00:28:24;;;;;;;;;;;16.80;99.90;;;;;;4930045;29;19958;-74
2023/06/08 00:30:51;;;;;;;;;;;16.70;99.90;;;;;;4924894;29;19938;-74
2023/06/08 00:33:18;;;;;;;;;;;16.60;99.90;;;;;;4931758;29;19969;-74
2023/06/08 00:35:47;;;;;;;;;;;16.60;99.90;;;;;;4926723;29;19926;-74
2023/06/08 00:38:13;;;;;;;;;;;16.60;99.90;;;;;;4928182;29;19922;-74
2023/06/08 00:40:39;;;;;;;;;;;16.50;99.90;;;;;;4932484;29;19923;-74
2023/06/08 00:43:16;;;;;;;;;;;16.50;99.90;;;;;;4910158;29;19918;-74
2023/06/08 00:45:42;;;;;;;;;;;16.50;99.90;;;;;;4912619;29;19915;-74
2023/06/08 00:48:09;;;;;;;;;;;16.50;99.90;;;;;;4925544;29;20001;-74
2023/06/08 00:50:36;;;;;;;;;;;16.50;99.90;;;;;;4925459;29;19958;-74
2023/06/08 00:53:01;;;;;;;;;;;16.40;99.90;;;;;;4922689;29;19968;-75
2023/06/08 00:55:29;;;;;;;;;;;16.40;99.90;;;;;;4928057;29;19954;-74
2023/06/08 00:57:55;;;;;;;;;;;16.30;99.90;;;;;;4929520;29;19931;-74
2023/06/08 01:00:22;;;;;;;;;;;16.30;99.90;;;;;;4927895;29;20265;-73
2023/06/08 01:02:50;;;;;;;;;;;16.30;99.90;;;;;;4926996;29;19919;-73
2023/06/08 01:05:16;;;;;;;;;;;16.40;99.90;;;;;;4907967;29;20368;-74
2023/06/08 01:07:48;;;;;;;;;;;16.40;99.90;;;;;;4929888;29;19919;-74
2023/06/08 01:10:37;;;;;;;;;;;16.40;99.90;;;;;;4929905;29;19915;-74
2023/06/08 01:13:12;;;;;;;;;;;16.40;99.90;;;;;;4929753;29;19919;-74
2023/06/08 01:15:40;;;;;;;;;;;16.40;99.90;;;;;;4918467;29;20283;-74
2023/06/08 01:18:07;;;;;;;;;;;16.40;99.90;;;;;;4930581;29;19961;-74
2023/06/08 01:20:34;;;;;;;;;;;16.50;99.90;;;;;;4908845;29;20748;-73
2023/06/08 01:23:34;;;;;;;;;;;16.50;99.90;;;;;;4927613;29;19986;-74
2023/06/08 01:26:00;;;;;;;;;;;16.60;99.90;;;;;;4923852;29;20429;-73
2023/06/08 01:28:28;;;;;;;;;;;16.80;99.90;;;;;;4926359;29;20708;-74
2023/06/08 01:30:58;;;;;;;;;;;16.80;99.90;;;;;;4927549;29;19989;-74
2023/06/08 01:33:25;;;;;;;;;;;16.90;99.90;;;;;;4907807;29;20508;-73
2023/06/08 01:36:25;;;;;;;;;;;16.90;99.90;;;;;;4920673;28;19922;-74
2023/06/08 01:38:59;;;;;;;;;;;16.90;99.90;;;;;;4904859;29;20101;-74
2023/06/08 01:41:27;;;;;;;;;;;17.00;99.90;;;;;;4927437;29;19962;-74
2023/06/08 01:43:53;;;;;;;;;;;16.90;99.90;;;;;;4922679;29;19965;-74
2023/06/08 01:46:21;;;;;;;;;;;16.90;99.90;;;;;;4927723;29;19914;-73
2023/06/08 01:48:49;;;;;;;;;;;16.80;99.90;;;;;;4907594;29;20264;-73
2023/06/08 01:51:16;;;;;;;;;;;16.70;99.90;;;;;;4927175;29;19957;-74
2023/06/08 01:53:42;;;;;;;;;;;16.60;99.90;;;;;;4926010;29;19910;-76
2023/06/08 01:56:09;;;;;;;;;;;16.50;99.90;;;;;;4922487;29;19918;-74
2023/06/08 01:58:34;;;;;;;;;;;16.50;99.90;;;;;;4925853;29;19926;-73
2023/06/08 02:01:01;;;;;;;;;;;16.50;99.90;;;;;;4922322;29;19919;-74
2023/06/08 02:03:27;;;;;;;;;;;16.50;99.90;;;;;;4928100;29;19918;-74
2023/06/08 02:05:56;;;;;;;;;;;16.40;99.90;;;;;;4923162;29;20434;-73
2023/06/08 02:08:25;;;;;;;;;;;16.40;99.90;;;;;;4908042;29;19925;-74
2023/06/08 02:10:53;;;;;;;;;;;16.40;99.90;;;;;;4907812;29;19989;-74
2023/06/08 02:13:20;;;;;;;;;;;16.40;99.90;;;;;;4929815;29;20440;-74
2023/06/08 02:15:51;;;;;;;;;;;16.40;99.90;;;;;;4925443;29;19910;-74
2023/06/08 02:18:19;;;;;;;;;;;16.30;99.90;;;;;;4923919;29;19919;-74
2023/06/08 02:20:45;;;;;;;;;;;16.40;99.90;;;;;;4925089;29;19914;-73
2023/06/08 02:23:10;;;;;;;;;;;16.40;99.90;;;;;;4932258;29;19959;-74
2023/06/08 02:25:38;;;;;;;;;;;16.40;99.90;;;;;;4923850;29;19911;-74
2023/06/08 02:28:04;;;;;;;;;;;16.40;99.90;;;;;;4923915;29;19929;-74
2023/06/08 02:30:33;;;;;;;;;;;16.40;99.90;;;;;;4925550;29;19915;-74
2023/06/08 02:32:59;;;;;;;;;;;16.30;99.90;;;;;;4926964;29;19966;-74
2023/06/08 02:35:27;;;;;;;;;;;16.30;99.90;;;;;;4905542;29;20298;-74
2023/06/08 02:37:53;;;;;;;;;;;16.30;99.90;;;;;;4901622;29;19945;-74
2023/06/08 02:40:19;;;;;;;;;;;16.20;99.90;;;;;;4925848;29;20025;-74
2023/06/08 02:42:50;;;;;;;;;;;16.20;99.90;;;;;;4923577;29;19962;-75
2023/06/08 02:45:16;;;;;;;;;;;16.20;99.90;;;;;;4927898;29;19926;-74
2023/06/08 02:47:47;;;;;;;;;;;16.20;99.90;;;;;;4926523;29;19918;-74
2023/06/08 02:50:13;;;;;;;;;;;16.20;99.90;;;;;;4923258;29;19917;-73
2023/06/08 02:52:40;;;;;;;;;;;16.10;99.90;;;;;;4925640;29;20428;-74
2023/06/08 02:55:09;;;;;;;;;;;16.00;99.90;;;;;;4924272;29;19911;-74
2023/06/08 02:57:40;;;;;;;;;;;16.00;99.90;;;;;;4923029;29;20452;-74
2023/06/08 03:00:07;;;;;;;;;;;16.00;99.90;;;;;;4922690;29;20001;-74
2023/06/08 03:02:38;;;;;;;;;;;15.90;99.90;;;;;;4925848;29;19934;-73
2023/06/08 03:05:04;;;;;;;;;;;15.90;99.90;;;;;;4924607;29;19918;-75
2023/06/08 03:07:33;;;;;;;;;;;15.90;99.90;;;;;;4905179;29;20300;-74
2023/06/08 03:09:59;;;;;;;;;;;15.90;99.90;;;;;;4923844;29;20411;-74
2023/06/08 03:12:31;;;;;;;;;;;15.90;99.90;;;;;;4923689;29;19915;-74
2023/06/08 03:14:58;;;;;;;;;;;15.90;99.90;;;;;;4930065;29;20296;-74
2023/06/08 03:17:26;;;;;;;;;;;15.90;99.90;;;;;;4905811;29;19915;-74
2023/06/08 03:19:53;;;;;;;;;;;16.00;99.90;;;;;;4923171;29;19915;-74
2023/06/08 03:22:24;;;;;;;;;;;16.00;99.90;;;;;;4923497;29;19919;-74
2023/06/08 03:24:58;;;;;;;;;;;16.10;99.90;;;;;;4926583;29;19952;-74
2023/06/08 03:27:27;;;;;;;;;;;16.20;99.90;;;;;;4925801;29;19922;-75
2023/06/08 03:29:58;;;;;;;;;;;16.20;99.90;;;;;;4929054;29;20013;-73
2023/06/08 03:32:23;;;;;;;;;;;16.30;99.90;;;;;;4924356;29;19911;-75
2023/06/08 03:34:56;;;;;;;;;;;16.40;99.90;;;;;;4922083;29;20407;-74
2023/06/08 03:37:21;;;;;;;;;;;16.50;99.90;;;;;;4905471;29;19919;-74
2023/06/08 03:39:49;;;;;;;;;;;16.70;99.90;;;;;;4928076;29;19946;-74
2023/06/08 03:42:15;;;;;;;;;;;16.80;99.90;;;;;;4906354;29;19940;-74
2023/06/08 03:44:42;;;;;;;;;;;16.90;99.90;;;;;;4924068;29;20713;-75
2023/06/08 03:47:12;;;;;;;;;;;17.00;99.90;;;;;;4927093;29;19978;-74
2023/06/08 03:49:38;;;;;;;;;;;17.00;99.90;;;;;;4921798;29;19914;-74
2023/06/08 03:52:07;;;;;;;;;;;17.10;99.90;;;;;;4924201;29;19918;-74
2023/06/08 03:54:33;;;;;;;;;;;17.10;99.90;;;;;;4922427;29;19970;-74
2023/06/08 03:57:00;;;;;;;;;;;17.10;99.90;;;;;;4926644;29;19911;-74
2023/06/08 03:59:27;;;;;;;;;;;17.20;99.90;;;;;;4929208;29;20352;-74
2023/06/08 04:01:53;;;;;;;;;;;17.30;99.90;;;;;;4929355;29;19984;-74
2023/06/08 04:04:28;;;;;;;;;;;17.40;99.90;;;;;;4917448;29;19972;-73
2023/06/08 04:06:57;;;;;;;;;;;17.60;99.90;;;;;;4905411;29;19922;-74
2023/06/08 04:09:25;;;;;;;;;;;17.60;99.90;;;;;;4927672;29;19965;-74
2023/06/08 04:11:52;;;;;;;;;;;17.60;99.90;;;;;;4925555;29;19966;-74
2023/06/08 04:14:18;;;;;;;;;;;17.70;99.90;;;;;;4909511;29;19915;-74
2023/06/08 04:16:46;;;;;;;;;;;17.50;99.90;;;;;;4924613;29;20285;-73
2023/06/08 04:19:11;;;;;;;;;;;17.40;99.90;;;;;;4922995;29;19911;-74
2023/06/08 04:21:37;;;;;;;;;;;17.40;99.90;;;;;;4910161;29;19922;-73
2023/06/08 04:24:03;;;;;;;;;;;17.40;99.90;;;;;;4920870;29;20013;-74
2023/06/08 04:26:30;;;;;;;;;;;17.50;99.90;;;;;;4921006;29;20005;-74
2023/06/08 04:29:03;;;;;;;;;;;17.60;99.90;;;;;;4925029;29;19950;-74
2023/06/08 04:31:31;;;;;;;;;;;17.70;99.90;;;;;;4906865;29;19958;-74
2023/06/08 04:33:57;;;;;;;;;;;17.70;99.90;;;;;;4906801;29;19985;-74
2023/06/08 04:36:25;;;;;;;;;;;17.80;99.90;;;;;;4919575;29;20352;-74
2023/06/08 04:38:52;;;;;;;;;;;17.90;99.90;;;;;;4908756;29;19985;-74
2023/06/08 04:41:19;;;;;;;;;;;18.10;99.90;;;;;;4925773;29;19999;-74
2023/06/08 04:43:49;;;;;;;;;;;18.20;99.90;;;;;;4923073;29;19946;-74
2023/06/08 04:46:16;;;;;;;;;;;18.40;99.90;;;;;;4907446;29;20349;-74
2023/06/08 04:48:43;;;;;;;;;;;18.50;99.90;;;;;;4923217;29;20352;-74
2023/06/08 04:51:10;;;;;;;;;;;18.80;99.90;;;;;;4928400;29;19966;-74
2023/06/08 04:53:37;;;;;;;;;;;19.00;99.90;;;;;;4917163;29;19914;-75
2023/06/08 04:56:04;;;;;;;;;;;19.00;99.90;;;;;;4922789;29;19922;-74
2023/06/08 04:58:30;;;;;;;;;;;19.00;99.90;;;;;;4927246;29;20312;-74
2023/06/08 05:01:07;;;;;;;;;;;18.70;99.90;;;;;;4923790;29;19915;-73
2023/06/08 05:03:33;;;;;;;;;;;18.60;99.90;;;;;;4920600;29;20381;-73
2023/06/08 05:06:00;;;;;;;;;;;18.50;99.90;;;;;;4922000;29;19921;-74
2023/06/08 05:08:28;;;;;;;;;;;18.40;99.90;;;;;;4921210;29;20010;-74
2023/06/08 05:10:53;;;;;;;;;;;18.50;99.90;;;;;;4925026;29;19915;-74
2023/06/08 05:13:20;;;;;;;;;;;18.60;99.90;;;;;;4929128;29;19910;-74
2023/06/08 05:15:45;;;;;;;;;;;18.90;99.90;;;;;;4926621;29;19914;-74
2023/06/08 05:18:13;;;;;;;;;;;19.30;99.90;;;;;;4927238;29;19911;-74
2023/06/08 05:20:39;;;;;;;;;;;19.50;99.90;;;;;;4905626;29;19993;-75
2023/06/08 05:23:05;;;;;;;;;;;19.80;99.90;;;;;;4911250;29;19973;-75
2023/06/08 05:25:34;;;;;;;;;;;20.10;99.90;;;;;;4923589;29;19982;-74
2023/06/08 05:27:59;;;;;;;;;;;20.20;99.90;;;;;;4921861;29;19921;-73
2023/06/08 05:30:26;;;;;;;;;;;20.10;99.90;;;;;;4923435;29;19911;-74
2023/06/08 05:32:54;;;;;;;;;;;20.10;99.90;;;;;;4924581;29;19929;-74
2023/06/08 05:35:19;;;;;;;;;;;20.10;99.90;;;;;;4924949;29;19911;-74
2023/06/08 05:37:47;;;;;;;;;;;20.10;99.90;;;;;;4907773;29;19910;-73
2023/06/08 05:40:12;;;;;;;;;;;20.30;99.90;;;;;;4928209;29;20005;-74
2023/06/08 05:42:40;;;;;;;;;;;20.30;99.90;;;;;;4928234;29;19994;-74
2023/06/08 05:45:06;;;;;;;;;;;20.00;99.90;;;;;;4927135;29;19915;-74
2023/06/08 05:47:32;;;;;;;;;;;19.40;99.90;;;;;;4921361;29;19923;-74
2023/06/08 05:50:04;;;;;;;;;;;19.10;99.90;;;;;;4927605;29;19911;-73
2023/06/08 05:52:36;;;;;;;;;;;18.90;99.90;;;;;;4929663;29;19922;-74
2023/06/08 05:55:01;;;;;;;;;;;18.80;99.90;;;;;;4907182;29;20134;-74
2023/06/08 05:57:29;;;;;;;;;;;18.70;99.90;;;;;;4926217;29;20679;-74
2023/06/08 05:59:55;;;;;;;;;;;18.70;99.90;;;;;;4907244;29;19918;-73
2023/06/08 06:02:23;;;;;;;;;;;18.70;99.90;;;;;;4924765;29;19926;-74
2023/06/08 06:04:49;;;;;;;;;;;18.70;99.90;;;;;;4925789;29;19953;-74
2023/06/08 06:07:16;;;;;;;;;;;18.70;99.90;;;;;;4924258;29;19919;-74
2023/06/08 06:09:49;;;;;;;;;;;18.70;99.90;;;;;;4925468;29;19911;-74
2023/06/08 06:12:16;;;;;;;;;;;18.80;99.90;;;;;;4901827;29;19946;-73
2023/06/08 06:14:41;;;;;;;;;;;19.00;99.90;;;;;;4922641;29;19915;-73
2023/06/08 06:17:08;;;;;;;;;;;19.00;99.90;;;;;;4926959;29;19922;-74
2023/06/08 06:19:36;;;;;;;;;;;19.30;99.90;;;;;;4925318;29;19969;-74
2023/06/08 06:22:07;;;;;;;;;;;19.50;99.90;;;;;;4922652;29;20557;-73
2023/06/08 06:24:35;;;;;;;;;;;19.50;99.90;;;;;;4907878;29;20021;-73
2023/06/08 06:27:01;;;;;;;;;;;19.40;99.90;;;;;;4906757;29;20895;-74
2023/06/08 06:29:27;;;;;;;;;;;19.60;99.90;;;;;;4912289;29;19978;-75
2023/06/08 06:31:54;;;;;;;;;;;19.80;99.90;;;;;;4925213;29;20005;-73
2023/06/08 06:34:20;;;;;;;;;;;19.90;99.90;;;;;;4923412;29;19914;-74
2023/06/08 06:36:46;;;;;;;;;;;19.90;99.90;;;;;;4916818;29;19918;-74
2023/06/08 06:39:12;;;;;;;;;;;19.90;99.90;;;;;;4923823;29;19966;-73
2023/06/08 06:41:43;;;;;;;;;;;19.80;99.90;;;;;;4923751;29;20234;-74
2023/06/08 06:44:10;;;;;;;;;;;19.70;99.90;;;;;;4932187;29;19954;-73
2023/06/08 06:46:37;;;;;;;;;;;19.50;99.90;;;;;;4930291;29;20005;-74
2023/06/08 06:49:06;;;;;;;;;;;19.70;99.90;;;;;;4931521;29;19911;-74
2023/06/08 06:51:31;;;;;;;;;;;20.10;99.90;;;;;;4931807;29;19942;-74
2023/06/08 06:53:57;;;;;;;;;;;20.50;99.90;;;;;;4913844;29;19954;-74
2023/06/08 06:56:27;;;;;;;;;;;20.70;99.90;;;;;;4932907;29;20020;-73
2023/06/08 06:58:52;;;;;;;;;;;20.70;99.90;;;;;;4938067;29;19914;-75
2023/06/08 07:01:19;;;;;;;;;;;20.70;99.90;;;;;;4907864;29;19921;-74
2023/06/08 07:03:46;;;;;;;;;;;20.90;99.90;;;;;;4932977;29;20006;-74
2023/06/08 07:06:12;;;;;;;;;;;20.80;99.90;;;;;;4930665;29;20314;-74
2023/06/08 07:08:38;;;;;;;;;;;21.20;99.90;;;;;;4914091;29;19932;-74
2023/06/08 07:11:06;;;;;;;;;;;21.60;99.90;;;;;;4927492;29;19989;-74
2023/06/08 07:13:31;;;;;;;;;;;22.50;99.90;;;;;;4927849;29;19914;-74
2023/06/08 07:16:01;;;;;;;;;;;23.00;99.90;;;;;;4935395;29;19914;-74
2023/06/08 07:18:27;;;;;;;;;;;23.00;99.90;;;;;;4927658;29;19918;-74
2023/06/08 07:21:00;;;;;;;;;;;23.20;99.90;;;;;;4907759;29;19941;-74
2023/06/08 07:23:27;;;;;;;;;;;22.70;99.90;;;;;;4925923;29;19950;-74
2023/06/08 07:25:54;;;;;;;;;;;22.70;99.90;;;;;;4933706;29;19921;-75
2023/06/08 07:28:20;;;;;;;;;;;22.60;99.90;;;;;;4927253;29;19955;-74
2023/06/08 07:30:45;;;;;;;;;;;22.70;99.90;;;;;;4916703;29;19954;-74
2023/06/08 07:33:12;;;;;;;;;;;22.70;99.90;;;;;;4927409;29;19911;-74
2023/06/08 07:35:44;;;;;;;;;;;23.20;99.90;;;;;;4931265;28;20347;-73
2023/06/08 07:38:11;;;;;;;;;;;23.30;99.90;;;;;;4926507;29;20126;-74
2023/06/08 07:40:37;;;;;;;;;;;24.00;99.90;;;;;;4914849;29;20364;-74
2023/06/08 07:43:03;;;;;;;;;;;24.20;99.90;;;;;;4935871;29;19937;-74
2023/06/08 07:45:32;;;;;;;;;;;25.00;99.90;;;;;;4912925;29;20273;-74
2023/06/08 07:47:58;;;;;;;;;;;25.10;99.90;;;;;;4922707;29;19918;-74
2023/06/08 07:50:25;;;;;;;;;;;26.20;99.90;;;;;;4929357;29;19957;-74
2023/06/08 07:52:52;;;;;;;;;;;27.30;99.90;;;;;;4912750;29;19961;-74
2023/06/08 07:55:18;;;;;;;;;;;26.30;99.90;;;;;;4910200;29;19918;-74
2023/06/08 07:57:47;;;;;;;;;;;27.20;99.90;;;;;;4926072;29;19918;-74
2023/06/08 08:00:15;;;;;;;;;;;27.10;99.90;;;;;;4920585;29;19914;-74
2023/06/08 08:02:41;;;;;;;;;;;25.30;99.90;;;;;;4925202;29;20004;-73
2023/06/08 08:05:10;;;;;;;;;;;24.90;99.90;;;;;;4920625;29;19957;-73
2023/06/08 08:07:41;;;;;;;;;;;25.90;99.90;;;;;;4925617;29;19915;-76
2023/06/08 08:10:07;;;;;;;;;;;26.70;99.90;;;;;;4920628;28;19915;-76
2023/06/08 08:12:34;;;;;;;;;;;26.20;99.90;;;;;;4925020;29;19911;-75
2023/06/08 08:14:59;;;;;;;;;;;26.70;99.90;;;;;;4927220;29;19977;-76
2023/06/08 08:17:26;;;;;;;;;;;25.80;99.90;;;;;;4910991;29;19997;-76
2023/06/08 08:19:51;;;;;;;;;;;25.50;99.90;;;;;;4929378;29;19954;-76
2023/06/08 08:22:25;;;;;;;;;;;24.80;99.90;;;;;;4925497;29;19957;-76
2023/06/08 08:24:51;;;;;;;;;;;24.50;99.90;;;;;;4920927;29;19919;-77
2023/06/08 08:27:17;;;;;;;;;;;24.50;99.90;;;;;;4923477;29;20613;-76
2023/06/08 08:29:43;;;;;;;;;;;24.00;99.90;;;;;;4919919;29;19922;-76
2023/06/08 08:32:09;;;;;;;;;;;23.20;99.90;;;;;;4919466;29;19994;-77
2023/06/08 08:34:35;;;;;;;;;;;23.00;99.90;;;;;;4922193;29;19993;-77
2023/06/08 08:37:08;;;;;;;;;;;22.50;99.90;;;;;;4913017;29;20416;-78
2023/06/08 08:39:33;;;;;;;;;;;22.30;99.90;;;;;;4912283;29;19938;-81
2023/06/08 08:42:01;;;;;;;;;;;22.40;99.90;;;;;;4924878;29;20305;-78
2023/06/08 08:44:32;;;;;;;;;;;22.90;99.90;;;;;;4922462;29;19922;-80
2023/06/08 08:47:04;;;;;;;;;;;22.80;99.90;;;;;;4906299;29;19926;-79
2023/06/08 08:49:36;;;;;;;;;;;22.40;99.90;;;;;;4925999;29;20250;-78
2023/06/08 08:52:03;;;;;;;;;;;21.90;99.90;;;;;;4911678;29;19915;-78
2023/06/08 08:54:33;;;;;;;;;;;21.80;99.90;;;;;;4924377;29;20103;-78
2023/06/08 08:57:02;;;;;;;;;;;21.60;99.90;;;;;;4907887;29;19911;-76
2023/06/08 08:59:29;;;;;;;;;;;21.70;99.90;;;;;;4918060;29;19911;-75
2023/06/08 09:01:56;;;;;;;;;;;22.20;99.90;;;;;;4924302;29;19915;-75
2023/06/08 09:04:23;;;;;;;;;;;22.30;99.90;;;;;;4924136;29;20515;-75
2023/06/08 09:06:53;;;;;;;;;;;22.60;99.90;;;;;;4927287;29;20001;-76
2023/06/08 09:09:18;;;;;;;;;;;22.60;99.90;;;;;;4906835;29;19930;-77
2023/06/08 09:12:05;;;;;;;;;;;22.50;99.90;;;;;;4924576;29;19915;-75
2023/06/08 09:14:31;;;;;;;;;;;22.40;99.90;;;;;;4922257;29;19966;-76
2023/06/08 09:16:59;;;;;;;;;;;22.50;99.90;;;;;;4920527;29;20005;-76
2023/06/08 09:19:24;;;;;;;;;;;22.70;99.90;;;;;;4925115;29;19911;-76
2023/06/08 09:21:51;;;;;;;;;;;23.30;99.90;;;;;;4924174;29;19919;-76
2023/06/08 09:24:20;;;;;;;;;;;23.80;99.90;;;;;;4920198;29;19919;-76
2023/06/08 09:26:49;;;;;;;;;;;23.80;99.90;;;;;;4924794;29;19919;-73
2023/06/08 09:29:32;;;;;;;;;;;23.50;99.90;;;;;;4904179;29;19911;-75
2023/06/08 09:32:00;;;;;;;;;;;23.60;99.90;;;;;;4924271;29;19959;-75
2023/06/08 09:34:29;;;;;;;;;;;24.10;99.90;;;;;;4929259;29;19939;-77
2023/06/08 09:37:04;;;;;;;;;;;24.60;99.90;;;;;;4930540;29;20439;-76
2023/06/08 09:39:37;;;;;;;;;;;25.10;99.90;;;;;;4920316;29;19911;-76
2023/06/08 09:42:02;;;;;;;;;;;25.00;99.90;;;;;;4905948;29;19915;-76
2023/06/08 09:44:29;;;;;;;;;;;24.80;99.90;;;;;;4928514;29;19922;-76
2023/06/08 09:46:55;;;;;;;;;;;25.00;99.90;;;;;;4916781;29;19941;-75
2023/06/08 09:49:21;;;;;;;;;;;25.20;99.90;;;;;;4907145;29;21428;-79
2023/06/08 09:51:50;;;;;;;;;;;24.50;99.90;;;;;;4922972;29;19945;-78
2023/06/08 09:54:17;;;;;;;;;;;25.10;99.90;;;;;;4922873;29;20416;-79
2023/06/08 09:56:46;;;;;;;;;;;25.30;99.90;;;;;;4923569;29;19915;-79
2023/06/08 09:59:14;;;;;;;;;;;25.40;99.90;;;;;;4927478;29;19961;-80
2023/06/08 10:01:51;;;;;;;;;;;24.90;99.90;;;;;;4927740;29;19926;-77
2023/06/08 10:04:31;;;;;;;;;;;24.30;99.90;;;;;;4910015;29;20009;-78
2023/06/08 10:07:00;;;;;;;;;;;24.30;99.90;;;;;;4924658;29;19966;-77
2023/06/08 10:09:34;;;;;;;;;;;24.50;99.90;;;;;;4928022;29;19950;-78
2023/06/08 10:12:02;;;;;;;;;;;24.60;99.90;;;;;;4924135;29;19921;-77
2023/06/08 10:14:28;;;;;;;;;;;24.90;99.90;;;;;;4923746;29;20709;-77
2023/06/08 10:16:56;;;;;;;;;;;24.20;99.90;;;;;;4926540;29;19918;-76
2023/06/08 10:19:26;;;;;;;;;;;23.50;99.90;;;;;;4924000;29;19950;-76
2023/06/08 10:21:52;;;;;;;;;;;23.70;99.90;;;;;;4926940;29;20005;-76
2023/06/08 10:24:20;;;;;;;;;;;24.00;99.90;;;;;;4930395;29;19922;-77
2023/06/08 10:27:14;;;;;;;;;;;23.90;99.90;;;;;;4927734;29;19922;-76
2023/06/08 10:29:52;;;;;;;;;;;23.80;99.90;;;;;;4905864;29;20511;-78
2023/06/08 10:32:36;;;;;;;;;;;23.70;99.90;;;;;;4930517;29;19922;-77
2023/06/08 10:35:04;;;;;;;;;;;24.00;99.90;;;;;;4909650;29;20309;-78
2023/06/08 10:37:31;;;;;;;;;;;24.40;99.90;;;;;;4923477;29;19962;-77
2023/06/08 10:39:57;;;;;;;;;;;24.60;99.90;;;;;;4911039;29;19923;-77
2023/06/08 10:42:28;;;;;;;;;;;24.60;99.90;;;;;;4925817;29;19921;-78
2023/06/08 10:45:06;;;;;;;;;;;24.70;99.90;;;;;;4905903;29;19925;-78
2023/06/08 10:47:35;;;;;;;;;;;24.70;99.90;;;;;;4902697;29;19914;-77
2023/06/08 10:50:06;;;;;;;;;;;24.90;99.90;;;;;;4918444;29;20053;-77
2023/06/08 10:52:46;;;;;;;;;;;25.20;99.90;;;;;;4915145;29;19918;-77
2023/06/08 10:55:13;;;;;;;;;;;25.50;99.90;;;;;;4922374;29;19915;-77
2023/06/08 10:57:40;;;;;;;;;;;25.40;99.90;;;;;;4910794;29;20627;-77
2023/06/08 11:00:32;;;;;;;;;;;25.00;99.90;;;;;;4919456;29;19915;-77
2023/06/08 11:03:03;;;;;;;;;;;24.80;99.90;;;;;;4920879;29;20010;-77
2023/06/08 11:05:32;;;;;;;;;;;24.90;99.90;;;;;;4925066;29;19922;-79
2023/06/08 11:08:00;;;;;;;;;;;24.90;99.90;;;;;;4927368;29;19922;-78
2023/06/08 11:10:30;;;;;;;;;;;24.90;99.90;;;;;;4915506;29;20280;-78
2023/06/08 11:13:02;;;;;;;;;;;24.90;99.90;;;;;;4922271;29;19911;-76
2023/06/08 11:15:31;;;;;;;;;;;25.00;99.90;;;;;;4929366;29;20013;-78
2023/06/08 11:17:58;;;;;;;;;;;25.00;99.90;;;;;;4923053;29;19914;-77
2023/06/08 11:20:30;;;;;;;;;;;24.90;99.90;;;;;;4918284;29;19930;-78
2023/06/08 11:22:55;;;;;;;;;;;25.10;99.90;;;;;;4921168;29;19962;-78
2023/06/08 11:25:29;;;;;;;;;;;25.10;99.90;;;;;;4905183;29;19919;-77
2023/06/08 11:28:00;;;;;;;;;;;25.40;99.90;;;;;;4929633;29;19938;-77
2023/06/08 11:30:28;;;;;;;;;;;25.40;99.90;;;;;;4924495;29;19915;-77
2023/06/08 11:32:54;;;;;;;;;;;25.10;99.90;;;;;;4929864;29;20417;-76
2023/06/08 11:35:21;;;;;;;;;;;24.90;99.90;;;;;;4925905;29;20005;-76
2023/06/08 11:37:56;;;;;;;;;;;24.70;99.90;;;;;;4924298;29;19937;-76
2023/06/08 11:40:31;;;;;;;;;;;24.60;99.90;;;;;;4935761;29;19954;-76
2023/06/08 11:42:57;;;;;;;;;;;24.60;99.90;;;;;;4919416;29;20618;-78
2023/06/08 11:45:24;;;;;;;;;;;24.50;99.90;;;;;;4917239;29;19911;-77
2023/06/08 11:47:52;;;;;;;;;;;24.40;99.90;;;;;;4924579;29;19946;-77
2023/06/08 11:50:19;;;;;;;;;;;24.40;99.90;;;;;;4924679;29;19922;-75
2023/06/08 11:52:47;;;;;;;;;;;24.40;99.90;;;;;;4920788;29;19962;-76
2023/06/08 11:55:15;;;;;;;;;;;24.30;99.90;;;;;;4920050;29;20813;-76
2023/06/08 11:57:41;;;;;;;;;;;24.40;99.90;;;;;;4925469;29;19914;-76
2023/06/08 12:00:11;;;;;;;;;;;24.40;99.90;;;;;;4907149;29;19914;-75
2023/06/08 12:02:38;;;;;;;;;;;24.50;99.90;;;;;;4918763;29;19911;-75
2023/06/08 12:05:05;;;;;;;;;;;24.60;99.90;;;;;;4923993;29;20526;-76
2023/06/08 12:07:35;;;;;;;;;;;24.70;99.90;;;;;;4921612;29;19927;-76
2023/06/08 12:10:01;;;;;;;;;;;24.80;99.90;;;;;;4900527;29;20139;-76
2023/06/08 12:12:31;;;;;;;;;;;24.80;99.90;;;;;;4908117;29;19914;-76
2023/06/08 12:15:03;;;;;;;;;;;24.90;99.90;;;;;;4919391;29;19910;-80
2023/06/08 12:17:28;;;;;;;;;;;24.70;99.90;;;;;;4926878;29;20280;-78
2023/06/08 12:19:58;;;;;;;;;;;24.80;99.90;;;;;;4911112;29;20372;-79
2023/06/08 12:22:24;;;;;;;;;;;25.10;99.90;;;;;;4908823;29;19978;-76
2023/06/08 12:24:50;;;;;;;;;;;25.40;99.90;;;;;;4932437;29;19922;-76
2023/06/08 12:27:17;;;;;;;;;;;25.40;99.90;;;;;;4928147;29;19922;-76
2023/06/08 12:29:45;;;;;;;;;;;25.40;99.90;;;;;;4925245;29;20650;-77
2023/06/08 12:32:11;;;;;;;;;;;25.90;99.90;;;;;;4926888;29;19938;-77
2023/06/08 12:34:43;;;;;;;;;;;26.20;99.90;;;;;;4930121;29;20293;-74
2023/06/08 12:37:11;;;;;;;;;;;26.10;99.90;;;;;;4931381;29;19964;-76
2023/06/08 12:39:39;;;;;;;;;;;25.60;99.90;;;;;;4910555;29;19933;-76
2023/06/08 12:42:04;;;;;;;;;;;25.30;99.90;;;;;;4936299;29;19925;-76
2023/06/08 12:44:30;;;;;;;;;;;25.30;99.90;;;;;;4908274;29;19915;-76
2023/06/08 12:46:56;;;;;;;;;;;25.30;99.90;;;;;;4925751;29;19943;-75
2023/06/08 12:49:25;;;;;;;;;;;25.30;99.90;;;;;;4911580;29;19929;-75
2023/06/08 12:51:51;;;;;;;;;;;24.80;99.90;;;;;;4921154;29;19926;-76
2023/06/08 12:54:17;;;;;;;;;;;24.40;99.90;;;;;;4924080;29;19923;-75
2023/06/08 12:56:45;;;;;;;;;;;23.70;99.90;;;;;;4923329;29;19917;-75
2023/06/08 12:59:11;;;;;;;;;;;23.60;99.90;;;;;;4927675;29;19914;-75
2023/06/08 13:01:37;;;;;;;;;;;23.70;99.90;;;;;;4909323;29;19919;-75
2023/06/08 13:04:04;;;;;;;;;;;23.90;99.90;;;;;;4926496;29;20637;-75
2023/06/08 13:06:32;;;;;;;;;;;23.70;99.90;;;;;;4907005;29;19918;-75
2023/06/08 13:08:59;;;;;;;;;;;23.50;99.90;;;;;;4929304;29;19914;-75
2023/06/08 13:11:26;;;;;;;;;;;23.80;99.90;;;;;;4926265;29;20311;-75
2023/06/08 13:13:51;;;;;;;;;;;23.90;99.90;;;;;;4912016;29;19919;-75
2023/06/08 13:16:20;;;;;;;;;;;24.10;99.90;;;;;;4922516;29;19925;-73
2023/06/08 13:18:45;;;;;;;;;;;24.20;99.90;;;;;;4923939;29;19927;-74
2023/06/08 13:21:14;;;;;;;;;;;24.30;99.90;;;;;;4908721;29;19915;-75
2023/06/08 13:23:42;;;;;;;;;;;24.20;99.90;;;;;;4905724;29;19926;-74
2023/06/08 13:26:08;;;;;;;;;;;24.20;99.90;;;;;;4931811;29;19960;-74
2023/06/08 13:28:36;;;;;;;;;;;24.30;99.90;;;;;;4910944;29;19922;-74
2023/06/08 13:31:05;;;;;;;;;;;24.50;99.90;;;;;;4926064;29;19917;-74
2023/06/08 13:33:30;;;;;;;;;;;24.60;99.90;;;;;;4921951;29;19914;-75
2023/06/08 13:35:58;;;;;;;;;;;24.70;99.90;;;;;;4910557;29;19913;-74
2023/06/08 13:38:25;;;;;;;;;;;24.90;99.90;;;;;;4924149;29;20293;-73
2023/06/08 13:40:51;;;;;;;;;;;25.10;99.90;;;;;;4921478;29;19998;-73
2023/06/08 13:43:18;;;;;;;;;;;25.40;99.90;;;;;;4928966;29;19911;-74
2023/06/08 13:45:43;;;;;;;;;;;25.60;99.90;;;;;;4924429;29;19922;-73
2023/06/08 13:48:10;;;;;;;;;;;25.80;99.90;;;;;;4926528;29;19918;-74
2023/06/08 13:50:37;;;;;;;;;;;25.80;99.90;;;;;;4921707;29;19998;-74
2023/06/08 13:53:03;;;;;;;;;;;25.60;99.90;;;;;;4927559;29;19911;-74
2023/06/08 13:55:29;;;;;;;;;;;25.00;99.90;;;;;;4921462;29;19923;-73
2023/06/08 13:58:01;;;;;;;;;;;24.00;99.90;;;;;;4928103;29;19921;-75
2023/06/08 14:00:29;;;;;;;;;;;23.20;99.90;;;;;;4923636;29;19950;-76
2023/06/08 14:02:59;;;;;;;;;;;22.70;99.90;;;;;;4930487;29;19915;-76
2023/06/08 14:05:25;;;;;;;;;;;21.80;99.90;;;;;;4928467;29;19958;-75
2023/06/08 14:07:50;;;;;;;;;;;21.00;99.90;;;;;;4907167;29;19938;-76
2023/06/08 14:10:19;;;;;;;;;;;20.70;99.90;;;;;;4922333;29;19914;-77
2023/06/08 14:12:51;;;;;;;;;;;20.50;99.90;;;;;;4921062;29;20010;-76
2023/06/08 14:15:19;;;;;;;;;;;20.40;99.90;;;;;;4921125;29;19982;-77
2023/06/08 14:17:48;;;;;;;;;;;20.30;99.90;;;;;;4910189;29;19919;-76
2023/06/08 14:20:17;;;;;;;;;;;20.20;99.90;;;;;;4910749;29;19950;-77
2023/06/08 14:22:43;;;;;;;;;;;20.40;99.90;;;;;;4929398;29;19974;-74